sensor_id;sensor_type;location;lat;lon;timestamp;P1;durP1;ratioP1;P2;durP2;ratioP2
16792;SDS011;8513;42.662;23.350;2022-12-24T00:02:09;51.83;;;36.40;;
16792;SDS011;8513;42.662;23.350;2022-12-24T00:04:34;46.17;;;35.83;;
16792;SDS011;8513;42.662;23.350;2022-12-24T00:07:00;50.97;;;35.90;;
16792;SDS011;8513;42.662;23.350;2022-12-24T00:09:25;49.43;;;35.97;;
16792;SDS011;8513;42.662;23.350;2022-12-24T00:11:51;45.97;;;33.93;;
16792;SDS011;8513;42.662;23.350;2022-12-24T00:14:16;48.83;;;31.13;;
16792;SDS011;8513;42.662;23.350;2022-12-24T00:16:41;47.37;;;33.57;;
16792;SDS011;8513;42.662;23.350;2022-12-24T00:19:07;46.10;;;34.77;;
16792;SDS011;8513;42.662;23.350;2022-12-24T00:21:32;45.13;;;35.00;;
16792;SDS011;8513;42.662;23.350;2022-12-24T00:23:58;48.70;;;35.03;;
16792;SDS011;8513;42.662;23.350;2022-12-24T00:26:23;46.90;;;34.20;;
16792;SDS011;8513;42.662;23.350;2022-12-24T00:28:49;45.53;;;33.63;;
16792;SDS011;8513;42.662;23.350;2022-12-24T00:31:15;43.27;;;32.93;;
16792;SDS011;8513;42.662;23.350;2022-12-24T00:33:43;41.70;;;32.60;;
16792;SDS011;8513;42.662;23.350;2022-12-24T00:36:10;41.40;;;32.67;;
16792;SDS011;8513;42.662;23.350;2022-12-24T00:38:35;44.37;;;33.33;;
16792;SDS011;8513;42.662;23.350;2022-12-24T00:41:02;42.27;;;32.60;;
16792;SDS011;8513;42.662;23.350;2022-12-24T00:43:30;42.40;;;33.20;;
16792;SDS011;8513;42.662;23.350;2022-12-24T00:45:56;41.20;;;33.10;;
16792;SDS011;8513;42.662;23.350;2022-12-24T00:48:22;43.10;;;33.27;;
16792;SDS011;8513;42.662;23.350;2022-12-24T00:50:48;45.77;;;33.37;;
16792;SDS011;8513;42.662;23.350;2022-12-24T00:53:15;45.33;;;33.23;;
16792;SDS011;8513;42.662;23.350;2022-12-24T00:55:41;40.57;;;33.07;;
16792;SDS011;8513;42.662;23.350;2022-12-24T00:58:07;39.67;;;33.37;;
16792;SDS011;8513;42.662;23.350;2022-12-24T01:00:32;41.77;;;32.80;;
16792;SDS011;8513;42.662;23.350;2022-12-24T01:02:58;45.20;;;34.50;;
16792;SDS011;8513;42.662;23.350;2022-12-24T01:05:23;42.57;;;31.67;;
16792;SDS011;8513;42.662;23.350;2022-12-24T01:07:48;41.30;;;31.70;;
16792;SDS011;8513;42.662;23.350;2022-12-24T01:10:15;43.10;;;32.37;;
16792;SDS011;8513;42.662;23.350;2022-12-24T01:12:43;45.03;;;33.93;;
16792;SDS011;8513;42.662;23.350;2022-12-24T01:15:09;45.13;;;36.33;;
16792;SDS011;8513;42.662;23.350;2022-12-24T01:17:35;47.07;;;35.80;;
16792;SDS011;8513;42.662;23.350;2022-12-24T01:20:02;49.60;;;39.10;;
16792;SDS011;8513;42.662;23.350;2022-12-24T01:22:30;49.70;;;38.43;;
16792;SDS011;8513;42.662;23.350;2022-12-24T01:24:55;48.67;;;37.10;;
16792;SDS011;8513;42.662;23.350;2022-12-24T01:27:21;49.47;;;37.90;;
16792;SDS011;8513;42.662;23.350;2022-12-24T01:29:46;44.63;;;34.93;;
16792;SDS011;8513;42.662;23.350;2022-12-24T01:32:12;44.03;;;36.17;;
16792;SDS011;8513;42.662;23.350;2022-12-24T01:34:37;44.57;;;33.60;;
16792;SDS011;8513;42.662;23.350;2022-12-24T01:37:03;45.57;;;35.00;;
16792;SDS011;8513;42.662;23.350;2022-12-24T01:39:28;44.43;;;35.50;;
16792;SDS011;8513;42.662;23.350;2022-12-24T01:41:53;45.37;;;34.63;;
16792;SDS011;8513;42.662;23.350;2022-12-24T01:44:41;45.07;;;35.50;;
16792;SDS011;8513;42.662;23.350;2022-12-24T01:47:13;46.13;;;34.80;;
16792;SDS011;8513;42.662;23.350;2022-12-24T01:49:43;45.03;;;34.33;;
16792;SDS011;8513;42.662;23.350;2022-12-24T01:52:22;37.03;;;31.40;;
16792;SDS011;8513;42.662;23.350;2022-12-24T01:54:56;41.80;;;33.43;;
16792;SDS011;8513;42.662;23.350;2022-12-24T01:57:37;42.10;;;32.10;;
16792;SDS011;8513;42.662;23.350;2022-12-24T02:00:09;45.50;;;32.53;;
16792;SDS011;8513;42.662;23.350;2022-12-24T02:02:36;47.07;;;34.87;;
16792;SDS011;8513;42.662;23.350;2022-12-24T02:05:05;43.10;;;32.63;;
16792;SDS011;8513;42.662;23.350;2022-12-24T02:07:35;40.97;;;31.63;;
16792;SDS011;8513;42.662;23.350;2022-12-24T02:10:02;41.73;;;31.80;;
16792;SDS011;8513;42.662;23.350;2022-12-24T02:12:29;41.37;;;30.50;;
16792;SDS011;8513;42.662;23.350;2022-12-24T02:14:58;38.37;;;29.27;;
16792;SDS011;8513;42.662;23.350;2022-12-24T02:17:58;35.13;;;27.80;;
16792;SDS011;8513;42.662;23.350;2022-12-24T02:28:24;38.27;;;29.03;;
16792;SDS011;8513;42.662;23.350;2022-12-24T02:30:58;39.37;;;30.50;;
16792;SDS011;8513;42.662;23.350;2022-12-24T02:33:34;38.50;;;30.13;;
16792;SDS011;8513;42.662;23.350;2022-12-24T02:36:19;38.77;;;29.60;;
16792;SDS011;8513;42.662;23.350;2022-12-24T02:39:03;36.43;;;28.63;;
16792;SDS011;8513;42.662;23.350;2022-12-24T02:41:34;37.90;;;29.67;;
16792;SDS011;8513;42.662;23.350;2022-12-24T02:44:22;37.70;;;30.37;;
16792;SDS011;8513;42.662;23.350;2022-12-24T02:46:51;39.33;;;30.07;;
16792;SDS011;8513;42.662;23.350;2022-12-24T02:49:17;39.47;;;31.20;;
16792;SDS011;8513;42.662;23.350;2022-12-24T02:51:43;37.90;;;31.07;;
16792;SDS011;8513;42.662;23.350;2022-12-24T02:54:09;39.67;;;31.07;;
16792;SDS011;8513;42.662;23.350;2022-12-24T02:56:38;44.03;;;30.67;;
16792;SDS011;8513;42.662;23.350;2022-12-24T03:02:31;37.03;;;29.33;;
16792;SDS011;8513;42.662;23.350;2022-12-24T03:13:05;40.60;;;28.17;;
16792;SDS011;8513;42.662;23.350;2022-12-24T03:15:34;39.03;;;30.50;;
16792;SDS011;8513;42.662;23.350;2022-12-24T03:18:02;33.47;;;28.60;;
16792;SDS011;8513;42.662;23.350;2022-12-24T03:20:34;37.03;;;28.97;;
16792;SDS011;8513;42.662;23.350;2022-12-24T03:23:03;33.00;;;27.73;;
16792;SDS011;8513;42.662;23.350;2022-12-24T03:25:29;36.57;;;29.37;;
16792;SDS011;8513;42.662;23.350;2022-12-24T03:27:57;36.50;;;28.93;;
16792;SDS011;8513;42.662;23.350;2022-12-24T03:30:26;33.63;;;27.73;;
16792;SDS011;8513;42.662;23.350;2022-12-24T03:32:51;35.33;;;27.47;;
16792;SDS011;8513;42.662;23.350;2022-12-24T03:35:17;35.03;;;28.37;;
16792;SDS011;8513;42.662;23.350;2022-12-24T03:37:42;32.63;;;26.93;;
16792;SDS011;8513;42.662;23.350;2022-12-24T03:40:08;35.97;;;27.57;;
16792;SDS011;8513;42.662;23.350;2022-12-24T03:42:34;34.53;;;28.17;;
16792;SDS011;8513;42.662;23.350;2022-12-24T03:44:59;33.03;;;25.90;;
16792;SDS011;8513;42.662;23.350;2022-12-24T03:47:25;33.50;;;25.63;;
16792;SDS011;8513;42.662;23.350;2022-12-24T03:49:50;30.47;;;23.53;;
16792;SDS011;8513;42.662;23.350;2022-12-24T03:52:16;32.63;;;24.33;;
16792;SDS011;8513;42.662;23.350;2022-12-24T03:54:41;34.37;;;25.93;;
16792;SDS011;8513;42.662;23.350;2022-12-24T03:57:07;32.00;;;25.50;;
16792;SDS011;8513;42.662;23.350;2022-12-24T03:59:32;29.73;;;25.60;;
16792;SDS011;8513;42.662;23.350;2022-12-24T04:01:58;33.53;;;25.27;;
16792;SDS011;8513;42.662;23.350;2022-12-24T04:04:23;33.70;;;24.73;;
16792;SDS011;8513;42.662;23.350;2022-12-24T04:06:49;35.37;;;25.07;;
16792;SDS011;8513;42.662;23.350;2022-12-24T04:09:14;36.20;;;28.10;;
16792;SDS011;8513;42.662;23.350;2022-12-24T04:11:40;35.67;;;26.43;;
16792;SDS011;8513;42.662;23.350;2022-12-24T04:14:05;35.10;;;28.90;;
16792;SDS011;8513;42.662;23.350;2022-12-24T04:16:31;33.33;;;27.60;;
16792;SDS011;8513;42.662;23.350;2022-12-24T04:18:56;35.20;;;27.90;;
16792;SDS011;8513;42.662;23.350;2022-12-24T04:21:22;32.47;;;27.60;;
16792;SDS011;8513;42.662;23.350;2022-12-24T04:23:47;32.20;;;26.30;;
16792;SDS011;8513;42.662;23.350;2022-12-24T04:26:13;28.60;;;25.13;;
16792;SDS011;8513;42.662;23.350;2022-12-24T04:28:39;33.77;;;26.40;;
16792;SDS011;8513;42.662;23.350;2022-12-24T04:31:15;31.57;;;24.87;;
16792;SDS011;8513;42.662;23.350;2022-12-24T04:33:41;33.30;;;26.30;;
16792;SDS011;8513;42.662;23.350;2022-12-24T04:36:09;30.90;;;26.13;;
16792;SDS011;8513;42.662;23.350;2022-12-24T04:38:37;32.50;;;25.93;;
16792;SDS011;8513;42.662;23.350;2022-12-24T04:41:07;28.87;;;25.03;;
16792;SDS011;8513;42.662;23.350;2022-12-24T04:43:34;27.57;;;24.60;;
16792;SDS011;8513;42.662;23.350;2022-12-24T04:46:07;29.73;;;24.30;;
16792;SDS011;8513;42.662;23.350;2022-12-24T04:48:38;29.27;;;25.03;;
16792;SDS011;8513;42.662;23.350;2022-12-24T04:51:06;27.67;;;23.80;;
16792;SDS011;8513;42.662;23.350;2022-12-24T04:53:33;25.30;;;22.30;;
16792;SDS011;8513;42.662;23.350;2022-12-24T04:56:00;25.03;;;22.43;;
16792;SDS011;8513;42.662;23.350;2022-12-24T04:58:25;26.33;;;22.70;;
16792;SDS011;8513;42.662;23.350;2022-12-24T05:00:52;27.43;;;22.13;;
16792;SDS011;8513;42.662;23.350;2022-12-24T05:03:17;27.50;;;23.03;;
16792;SDS011;8513;42.662;23.350;2022-12-24T05:05:43;24.80;;;21.97;;
16792;SDS011;8513;42.662;23.350;2022-12-24T05:08:09;27.07;;;22.73;;
16792;SDS011;8513;42.662;23.350;2022-12-24T05:10:34;25.43;;;21.80;;
16792;SDS011;8513;42.662;23.350;2022-12-24T05:13:01;28.07;;;23.27;;
16792;SDS011;8513;42.662;23.350;2022-12-24T05:15:27;27.93;;;22.50;;
16792;SDS011;8513;42.662;23.350;2022-12-24T05:17:53;26.07;;;22.23;;
16792;SDS011;8513;42.662;23.350;2022-12-24T05:20:18;23.57;;;21.07;;
16792;SDS011;8513;42.662;23.350;2022-12-24T05:22:44;26.13;;;21.30;;
16792;SDS011;8513;42.662;23.350;2022-12-24T05:25:37;25.87;;;21.07;;
16792;SDS011;8513;42.662;23.350;2022-12-24T05:28:22;30.93;;;22.00;;
16792;SDS011;8513;42.662;23.350;2022-12-24T05:30:48;24.17;;;21.40;;
16792;SDS011;8513;42.662;23.350;2022-12-24T05:33:14;27.90;;;22.50;;
16792;SDS011;8513;42.662;23.350;2022-12-24T05:36:05;23.97;;;21.17;;
16792;SDS011;8513;42.662;23.350;2022-12-24T05:38:30;27.63;;;22.47;;
16792;SDS011;8513;42.662;23.350;2022-12-24T05:40:56;25.87;;;21.27;;
16792;SDS011;8513;42.662;23.350;2022-12-24T05:43:21;27.20;;;22.80;;
16792;SDS011;8513;42.662;23.350;2022-12-24T05:45:47;26.00;;;22.73;;
16792;SDS011;8513;42.662;23.350;2022-12-24T05:48:12;25.93;;;21.67;;
16792;SDS011;8513;42.662;23.350;2022-12-24T05:50:38;26.40;;;21.43;;
16792;SDS011;8513;42.662;23.350;2022-12-24T05:53:04;26.70;;;22.30;;
16792;SDS011;8513;42.662;23.350;2022-12-24T05:55:30;27.17;;;22.33;;
16792;SDS011;8513;42.662;23.350;2022-12-24T05:57:55;26.60;;;23.37;;
16792;SDS011;8513;42.662;23.350;2022-12-24T06:00:21;27.93;;;22.80;;
16792;SDS011;8513;42.662;23.350;2022-12-24T06:02:46;26.63;;;21.57;;
16792;SDS011;8513;42.662;23.350;2022-12-24T06:05:11;25.13;;;22.43;;
16792;SDS011;8513;42.662;23.350;2022-12-24T06:07:37;26.80;;;22.03;;
16792;SDS011;8513;42.662;23.350;2022-12-24T06:10:03;24.87;;;21.33;;
16792;SDS011;8513;42.662;23.350;2022-12-24T06:12:29;24.30;;;21.77;;
16792;SDS011;8513;42.662;23.350;2022-12-24T06:14:54;24.10;;;20.40;;
16792;SDS011;8513;42.662;23.350;2022-12-24T06:17:20;26.97;;;21.37;;
16792;SDS011;8513;42.662;23.350;2022-12-24T06:19:51;23.70;;;20.97;;
16792;SDS011;8513;42.662;23.350;2022-12-24T06:22:16;24.80;;;20.70;;
16792;SDS011;8513;42.662;23.350;2022-12-24T06:24:42;25.17;;;20.23;;
16792;SDS011;8513;42.662;23.350;2022-12-24T06:27:07;29.00;;;20.93;;
16792;SDS011;8513;42.662;23.350;2022-12-24T06:29:33;24.93;;;21.03;;
16792;SDS011;8513;42.662;23.350;2022-12-24T06:31:58;26.47;;;21.47;;
16792;SDS011;8513;42.662;23.350;2022-12-24T06:34:24;26.27;;;21.30;;
16792;SDS011;8513;42.662;23.350;2022-12-24T06:36:49;25.77;;;21.70;;
16792;SDS011;8513;42.662;23.350;2022-12-24T06:39:14;27.37;;;22.20;;
16792;SDS011;8513;42.662;23.350;2022-12-24T06:41:40;26.23;;;22.27;;
16792;SDS011;8513;42.662;23.350;2022-12-24T06:44:05;28.60;;;23.70;;
16792;SDS011;8513;42.662;23.350;2022-12-24T06:46:31;28.17;;;23.93;;
16792;SDS011;8513;42.662;23.350;2022-12-24T06:48:56;27.07;;;22.80;;
16792;SDS011;8513;42.662;23.350;2022-12-24T06:51:22;26.67;;;22.20;;
16792;SDS011;8513;42.662;23.350;2022-12-24T06:53:47;29.73;;;23.30;;
16792;SDS011;8513;42.662;23.350;2022-12-24T06:56:17;26.43;;;23.07;;
16792;SDS011;8513;42.662;23.350;2022-12-24T06:58:44;29.80;;;25.13;;
16792;SDS011;8513;42.662;23.350;2022-12-24T07:01:11;41.83;;;34.67;;
16792;SDS011;8513;42.662;23.350;2022-12-24T07:03:38;39.33;;;32.33;;
16792;SDS011;8513;42.662;23.350;2022-12-24T07:06:04;37.57;;;31.93;;
16792;SDS011;8513;42.662;23.350;2022-12-24T07:08:30;46.27;;;36.77;;
16792;SDS011;8513;42.662;23.350;2022-12-24T07:11:00;51.73;;;41.37;;
16792;SDS011;8513;42.662;23.350;2022-12-24T07:13:26;55.13;;;45.07;;
16792;SDS011;8513;42.662;23.350;2022-12-24T07:16:01;69.87;;;53.97;;
16792;SDS011;8513;42.662;23.350;2022-12-24T07:18:28;57.63;;;45.73;;
16792;SDS011;8513;42.662;23.350;2022-12-24T07:20:54;58.30;;;43.87;;
16792;SDS011;8513;42.662;23.350;2022-12-24T07:23:19;61.90;;;46.57;;
16792;SDS011;8513;42.662;23.350;2022-12-24T07:25:45;63.13;;;50.27;;
16792;SDS011;8513;42.662;23.350;2022-12-24T07:28:10;67.43;;;52.23;;
16792;SDS011;8513;42.662;23.350;2022-12-24T07:30:36;61.93;;;47.20;;
16792;SDS011;8513;42.662;23.350;2022-12-24T07:33:01;67.87;;;52.53;;
16792;SDS011;8513;42.662;23.350;2022-12-24T07:35:27;68.67;;;54.03;;
16792;SDS011;8513;42.662;23.350;2022-12-24T07:37:52;56.43;;;45.97;;
16792;SDS011;8513;42.662;23.350;2022-12-24T07:40:18;49.53;;;39.67;;
16792;SDS011;8513;42.662;23.350;2022-12-24T07:42:43;52.53;;;43.47;;
16792;SDS011;8513;42.662;23.350;2022-12-24T07:45:09;44.47;;;36.93;;
16792;SDS011;8513;42.662;23.350;2022-12-24T07:47:35;44.07;;;36.03;;
16792;SDS011;8513;42.662;23.350;2022-12-24T07:50:01;47.03;;;36.90;;
16792;SDS011;8513;42.662;23.350;2022-12-24T07:52:27;56.43;;;43.47;;
16792;SDS011;8513;42.662;23.350;2022-12-24T07:54:53;53.43;;;39.73;;
16792;SDS011;8513;42.662;23.350;2022-12-24T07:57:18;45.20;;;37.37;;
16792;SDS011;8513;42.662;23.350;2022-12-24T07:59:43;49.83;;;37.03;;
16792;SDS011;8513;42.662;23.350;2022-12-24T08:02:12;43.67;;;33.53;;
16792;SDS011;8513;42.662;23.350;2022-12-24T08:04:38;40.07;;;28.73;;
16792;SDS011;8513;42.662;23.350;2022-12-24T08:07:04;40.57;;;31.20;;
16792;SDS011;8513;42.662;23.350;2022-12-24T08:09:34;45.63;;;36.07;;
16792;SDS011;8513;42.662;23.350;2022-12-24T08:12:01;53.20;;;37.57;;
16792;SDS011;8513;42.662;23.350;2022-12-24T08:14:27;47.07;;;36.53;;
16792;SDS011;8513;42.662;23.350;2022-12-24T08:16:54;46.23;;;36.33;;
16792;SDS011;8513;42.662;23.350;2022-12-24T08:19:19;47.93;;;36.50;;
16792;SDS011;8513;42.662;23.350;2022-12-24T08:21:45;49.10;;;34.40;;
16792;SDS011;8513;42.662;23.350;2022-12-24T08:24:10;43.87;;;33.00;;
16792;SDS011;8513;42.662;23.350;2022-12-24T08:26:36;43.27;;;33.80;;
16792;SDS011;8513;42.662;23.350;2022-12-24T08:29:02;41.40;;;32.07;;
16792;SDS011;8513;42.662;23.350;2022-12-24T08:31:27;40.47;;;31.33;;
16792;SDS011;8513;42.662;23.350;2022-12-24T08:33:53;42.03;;;31.07;;
16792;SDS011;8513;42.662;23.350;2022-12-24T08:36:19;35.63;;;29.77;;
16792;SDS011;8513;42.662;23.350;2022-12-24T08:38:44;34.43;;;27.63;;
16792;SDS011;8513;42.662;23.350;2022-12-24T08:41:10;40.33;;;28.50;;
16792;SDS011;8513;42.662;23.350;2022-12-24T08:43:35;39.07;;;29.13;;
16792;SDS011;8513;42.662;23.350;2022-12-24T08:46:02;38.10;;;27.57;;
16792;SDS011;8513;42.662;23.350;2022-12-24T08:48:29;35.17;;;25.87;;
16792;SDS011;8513;42.662;23.350;2022-12-24T08:50:54;31.77;;;24.87;;
16792;SDS011;8513;42.662;23.350;2022-12-24T08:53:20;34.87;;;25.50;;
16792;SDS011;8513;42.662;23.350;2022-12-24T08:55:45;31.63;;;25.77;;
16792;SDS011;8513;42.662;23.350;2022-12-24T08:58:12;34.57;;;25.67;;
16792;SDS011;8513;42.662;23.350;2022-12-24T09:00:38;30.60;;;24.63;;
16792;SDS011;8513;42.662;23.350;2022-12-24T09:03:03;35.27;;;27.17;;
16792;SDS011;8513;42.662;23.350;2022-12-24T09:05:28;30.47;;;26.17;;
16792;SDS011;8513;42.662;23.350;2022-12-24T09:07:54;35.87;;;25.90;;
16792;SDS011;8513;42.662;23.350;2022-12-24T09:10:19;34.23;;;25.33;;
16792;SDS011;8513;42.662;23.350;2022-12-24T09:12:45;30.63;;;24.67;;
16792;SDS011;8513;42.662;23.350;2022-12-24T09:15:11;30.57;;;24.30;;
16792;SDS011;8513;42.662;23.350;2022-12-24T09:17:38;30.13;;;24.10;;
16792;SDS011;8513;42.662;23.350;2022-12-24T09:20:04;31.93;;;24.47;;
16792;SDS011;8513;42.662;23.350;2022-12-24T09:22:30;28.80;;;22.80;;
16792;SDS011;8513;42.662;23.350;2022-12-24T09:24:58;25.80;;;21.27;;
16792;SDS011;8513;42.662;23.350;2022-12-24T09:27:23;25.47;;;22.40;;
16792;SDS011;8513;42.662;23.350;2022-12-24T09:29:49;29.37;;;23.83;;
16792;SDS011;8513;42.662;23.350;2022-12-24T09:32:14;28.40;;;22.30;;
16792;SDS011;8513;42.662;23.350;2022-12-24T09:34:40;29.10;;;21.93;;
16792;SDS011;8513;42.662;23.350;2022-12-24T09:37:05;28.53;;;21.30;;
16792;SDS011;8513;42.662;23.350;2022-12-24T09:39:30;28.17;;;20.47;;
16792;SDS011;8513;42.662;23.350;2022-12-24T09:49:48;39.87;;;32.20;;
16792;SDS011;8513;42.662;23.350;2022-12-24T09:52:21;52.43;;;39.93;;
16792;SDS011;8513;42.662;23.350;2022-12-24T09:54:56;51.07;;;41.63;;
16792;SDS011;8513;42.662;23.350;2022-12-24T09:57:29;56.37;;;41.17;;
16792;SDS011;8513;42.662;23.350;2022-12-24T09:59:58;55.13;;;43.50;;
16792;SDS011;8513;42.662;23.350;2022-12-24T10:02:24;62.27;;;47.03;;
16792;SDS011;8513;42.662;23.350;2022-12-24T10:04:49;67.07;;;49.23;;
16792;SDS011;8513;42.662;23.350;2022-12-24T10:10:12;72.50;;;54.07;;
16792;SDS011;8513;42.662;23.350;2022-12-24T10:13:14;71.40;;;49.77;;
16792;SDS011;8513;42.662;23.350;2022-12-24T10:18:44;69.07;;;51.30;;
16792;SDS011;8513;42.662;23.350;2022-12-24T10:21:20;72.57;;;53.60;;
16792;SDS011;8513;42.662;23.350;2022-12-24T10:23:53;75.87;;;52.07;;
16792;SDS011;8513;42.662;23.350;2022-12-24T10:26:26;65.23;;;47.33;;
16792;SDS011;8513;42.662;23.350;2022-12-24T10:29:05;62.37;;;47.43;;
16792;SDS011;8513;42.662;23.350;2022-12-24T10:31:52;65.50;;;48.90;;
16792;SDS011;8513;42.662;23.350;2022-12-24T10:34:22;58.33;;;44.50;;
16792;SDS011;8513;42.662;23.350;2022-12-24T10:36:51;62.87;;;45.87;;
16792;SDS011;8513;42.662;23.350;2022-12-24T10:39:18;52.23;;;40.20;;
16792;SDS011;8513;42.662;23.350;2022-12-24T10:41:50;53.07;;;41.47;;
16792;SDS011;8513;42.662;23.350;2022-12-24T10:44:18;55.47;;;39.50;;
16792;SDS011;8513;42.662;23.350;2022-12-24T10:46:46;46.90;;;39.50;;
16792;SDS011;8513;42.662;23.350;2022-12-24T10:49:16;48.93;;;38.20;;
16792;SDS011;8513;42.662;23.350;2022-12-24T10:52:13;52.80;;;38.90;;
16792;SDS011;8513;42.662;23.350;2022-12-24T10:57:32;46.20;;;36.33;;
16792;SDS011;8513;42.662;23.350;2022-12-24T10:59:58;49.70;;;36.10;;
16792;SDS011;8513;42.662;23.350;2022-12-24T11:02:26;47.60;;;36.90;;
16792;SDS011;8513;42.662;23.350;2022-12-24T11:04:56;49.80;;;38.07;;
16792;SDS011;8513;42.662;23.350;2022-12-24T11:07:23;46.77;;;35.10;;
16792;SDS011;8513;42.662;23.350;2022-12-24T11:09:54;44.40;;;34.30;;
16792;SDS011;8513;42.662;23.350;2022-12-24T11:12:34;46.97;;;35.10;;
16792;SDS011;8513;42.662;23.350;2022-12-24T11:17:40;47.77;;;35.70;;
16792;SDS011;8513;42.662;23.350;2022-12-24T11:20:05;46.10;;;33.73;;
16792;SDS011;8513;42.662;23.350;2022-12-24T11:22:41;42.63;;;35.13;;
16792;SDS011;8513;42.662;23.350;2022-12-24T11:25:13;46.47;;;34.67;;
16792;SDS011;8513;42.662;23.350;2022-12-24T11:27:48;45.57;;;34.60;;
16792;SDS011;8513;42.662;23.350;2022-12-24T11:35:15;40.40;;;31.83;;
16792;SDS011;8513;42.662;23.350;2022-12-24T11:37:48;43.53;;;34.27;;
16792;SDS011;8513;42.662;23.350;2022-12-24T11:40:34;44.87;;;33.87;;
16792;SDS011;8513;42.662;23.350;2022-12-24T11:43:02;45.47;;;34.53;;
16792;SDS011;8513;42.662;23.350;2022-12-24T11:45:30;43.83;;;34.23;;
16792;SDS011;8513;42.662;23.350;2022-12-24T11:47:58;40.03;;;31.33;;
16792;SDS011;8513;42.662;23.350;2022-12-24T11:50:28;43.07;;;33.03;;
16792;SDS011;8513;42.662;23.350;2022-12-24T11:55:39;39.00;;;32.13;;
16792;SDS011;8513;42.662;23.350;2022-12-24T12:00:45;41.40;;;33.87;;
16792;SDS011;8513;42.662;23.350;2022-12-24T12:03:33;41.53;;;35.70;;
16792;SDS011;8513;42.662;23.350;2022-12-24T12:06:07;43.07;;;34.93;;
16792;SDS011;8513;42.662;23.350;2022-12-24T12:08:50;40.00;;;34.80;;
16792;SDS011;8513;42.662;23.350;2022-12-24T12:11:23;42.93;;;34.90;;
16792;SDS011;8513;42.662;23.350;2022-12-24T12:13:50;42.53;;;34.60;;
16792;SDS011;8513;42.662;23.350;2022-12-24T12:16:19;41.83;;;34.33;;
16792;SDS011;8513;42.662;23.350;2022-12-24T12:18:56;42.70;;;32.93;;
16792;SDS011;8513;42.662;23.350;2022-12-24T12:21:26;44.70;;;34.17;;
16792;SDS011;8513;42.662;23.350;2022-12-24T12:24:03;40.90;;;31.93;;
16792;SDS011;8513;42.662;23.350;2022-12-24T12:26:37;43.63;;;33.70;;
16792;SDS011;8513;42.662;23.350;2022-12-24T12:31:46;39.90;;;33.30;;
16792;SDS011;8513;42.662;23.350;2022-12-24T12:34:21;39.17;;;32.57;;
16792;SDS011;8513;42.662;23.350;2022-12-24T12:36:55;42.77;;;32.60;;
16792;SDS011;8513;42.662;23.350;2022-12-24T12:39:25;41.47;;;34.27;;
16792;SDS011;8513;42.662;23.350;2022-12-24T12:55:32;34.80;;;28.13;;
16792;SDS011;8513;42.662;23.350;2022-12-24T12:58:01;36.13;;;27.80;;
16792;SDS011;8513;42.662;23.350;2022-12-24T13:00:35;42.60;;;29.53;;
16792;SDS011;8513;42.662;23.350;2022-12-24T13:22:14;49.27;;;34.93;;
16792;SDS011;8513;42.662;23.350;2022-12-24T13:24:46;47.77;;;36.53;;
16792;SDS011;8513;42.662;23.350;2022-12-24T13:27:18;58.57;;;44.23;;
16792;SDS011;8513;42.662;23.350;2022-12-24T13:34:47;43.20;;;35.63;;
16792;SDS011;8513;42.662;23.350;2022-12-24T13:37:18;54.80;;;41.00;;
16792;SDS011;8513;42.662;23.350;2022-12-24T13:58:37;49.50;;;38.47;;
16792;SDS011;8513;42.662;23.350;2022-12-24T14:01:08;56.37;;;40.73;;
16792;SDS011;8513;42.662;23.350;2022-12-24T14:03:44;58.23;;;44.27;;
16792;SDS011;8513;42.662;23.350;2022-12-24T14:08:48;57.83;;;42.93;;
16792;SDS011;8513;42.662;23.350;2022-12-24T14:11:20;52.23;;;41.33;;
16792;SDS011;8513;42.662;23.350;2022-12-24T14:13:49;49.20;;;38.73;;
16792;SDS011;8513;42.662;23.350;2022-12-24T14:16:40;50.37;;;38.87;;
16792;SDS011;8513;42.662;23.350;2022-12-24T14:21:37;52.90;;;41.60;;
16792;SDS011;8513;42.662;23.350;2022-12-24T14:24:13;52.07;;;41.00;;
16792;SDS011;8513;42.662;23.350;2022-12-24T14:26:46;58.13;;;43.93;;
16792;SDS011;8513;42.662;23.350;2022-12-24T14:29:15;62.73;;;45.80;;
16792;SDS011;8513;42.662;23.350;2022-12-24T14:31:52;62.07;;;46.90;;
16792;SDS011;8513;42.662;23.350;2022-12-24T14:34:19;61.77;;;48.10;;
16792;SDS011;8513;42.662;23.350;2022-12-24T14:36:45;66.77;;;50.40;;
16792;SDS011;8513;42.662;23.350;2022-12-24T15:00:43;58.37;;;45.27;;
16792;SDS011;8513;42.662;23.350;2022-12-24T15:03:13;47.83;;;38.20;;
16792;SDS011;8513;42.662;23.350;2022-12-24T15:05:51;40.60;;;33.57;;
16792;SDS011;8513;42.662;23.350;2022-12-24T15:08:23;33.37;;;27.77;;
16792;SDS011;8513;42.662;23.350;2022-12-24T15:10:53;31.60;;;25.23;;
16792;SDS011;8513;42.662;23.350;2022-12-24T15:13:23;33.37;;;25.77;;
16792;SDS011;8513;42.662;23.350;2022-12-24T15:15:54;28.53;;;23.20;;
16792;SDS011;8513;42.662;23.350;2022-12-24T15:18:21;35.60;;;27.77;;
16792;SDS011;8513;42.662;23.350;2022-12-24T15:20:51;29.93;;;21.90;;
16792;SDS011;8513;42.662;23.350;2022-12-24T15:23:20;27.40;;;21.80;;
16792;SDS011;8513;42.662;23.350;2022-12-24T15:25:50;22.67;;;19.07;;
16792;SDS011;8513;42.662;23.350;2022-12-24T15:28:16;28.17;;;19.33;;
16792;SDS011;8513;42.662;23.350;2022-12-24T15:30:43;25.13;;;18.50;;
16792;SDS011;8513;42.662;23.350;2022-12-24T15:33:09;26.27;;;19.93;;
16792;SDS011;8513;42.662;23.350;2022-12-24T15:35:47;21.60;;;19.00;;
16792;SDS011;8513;42.662;23.350;2022-12-24T15:40:48;19.77;;;17.13;;
16792;SDS011;8513;42.662;23.350;2022-12-24T15:43:14;19.83;;;16.47;;
16792;SDS011;8513;42.662;23.350;2022-12-24T15:45:41;18.87;;;16.80;;
16792;SDS011;8513;42.662;23.350;2022-12-24T15:48:09;19.13;;;14.80;;
16792;SDS011;8513;42.662;23.350;2022-12-24T15:50:43;15.97;;;13.63;;
16792;SDS011;8513;42.662;23.350;2022-12-24T15:53:12;15.80;;;14.10;;
16792;SDS011;8513;42.662;23.350;2022-12-24T15:55:46;17.17;;;13.27;;
16792;SDS011;8513;42.662;23.350;2022-12-24T15:58:27;18.00;;;14.87;;
16792;SDS011;8513;42.662;23.350;2022-12-24T16:01:01;17.80;;;14.93;;
16792;SDS011;8513;42.662;23.350;2022-12-24T16:06:13;16.90;;;14.00;;
16792;SDS011;8513;42.662;23.350;2022-12-24T16:08:39;16.03;;;12.43;;
16792;SDS011;8513;42.662;23.350;2022-12-24T16:11:16;15.00;;;13.10;;
16792;SDS011;8513;42.662;23.350;2022-12-24T16:16:16;14.17;;;11.57;;
16792;SDS011;8513;42.662;23.350;2022-12-24T16:21:39;14.43;;;12.77;;
16792;SDS011;8513;42.662;23.350;2022-12-24T16:24:06;15.03;;;11.67;;
16792;SDS011;8513;42.662;23.350;2022-12-24T16:26:49;13.80;;;12.40;;
16792;SDS011;8513;42.662;23.350;2022-12-24T16:29:15;14.63;;;12.63;;
16792;SDS011;8513;42.662;23.350;2022-12-24T16:31:51;16.40;;;14.20;;
16792;SDS011;8513;42.662;23.350;2022-12-24T16:34:22;17.00;;;13.87;;
16792;SDS011;8513;42.662;23.350;2022-12-24T16:36:51;17.17;;;14.33;;
16792;SDS011;8513;42.662;23.350;2022-12-24T16:39:24;14.93;;;13.43;;
16792;SDS011;8513;42.662;23.350;2022-12-24T16:41:55;19.17;;;15.30;;
16792;SDS011;8513;42.662;23.350;2022-12-24T16:44:41;28.47;;;22.43;;
16792;SDS011;8513;42.662;23.350;2022-12-24T16:47:09;33.93;;;28.37;;
16792;SDS011;8513;42.662;23.350;2022-12-24T16:49:44;37.73;;;29.77;;
16792;SDS011;8513;42.662;23.350;2022-12-24T16:52:14;35.00;;;29.63;;
16792;SDS011;8513;42.662;23.350;2022-12-24T16:54:42;36.73;;;29.63;;
16792;SDS011;8513;42.662;23.350;2022-12-24T16:57:08;37.33;;;30.07;;